Time;durP1;ratioP1;P1;durP2;ratioP2;P2;SDS_P1;SDS_P2;PMS_P1;PMS_P2;Temp;Humidity;BMP_temperature;BMP_pressure;BME280_temperature;BME280_humidity;BME280_pressure;Samples;Min_cycle;Max_cycle;Signal;HPM_P1;HPM_P2
2022/04/01 00:00:57;;;;;;;2.55;1.70;;;8.10;38.00;;;;;;5052085;28;20188;-34
2022/04/01 00:03:23;;;;;;;4.67;3.07;;;8.10;38.10;;;;;;5048783;28;20180;-34
2022/04/01 00:05:49;;;;;;;3.63;2.40;;;8.20;38.30;;;;;;5053358;28;20608;-33
2022/04/01 00:08:14;;;;;;;4.50;2.30;;;8.10;37.40;;;;;;5053150;28;20212;-34
2022/04/01 00:10:40;;;;;;;3.20;1.87;;;8.10;37.10;;;;;;5053179;28;20183;-34
2022/04/01 00:13:07;;;;;;;3.47;2.77;;;8.10;37.60;;;;;;5053254;28;20639;-34
2022/04/01 00:15:33;;;;;;;6.78;2.58;;;8.10;37.90;;;;;;5053098;28;20285;-34
2022/04/01 00:18:00;;;;;;;9.48;2.85;;;8.10;37.70;;;;;;5053081;28;20633;-34
2022/04/01 00:20:27;;;;;;;2.60;1.95;;;8.10;37.60;;;;;;5052854;28;20716;-34
2022/04/01 00:22:54;;;;;;;7.32;3.17;;;8.10;37.60;;;;;;5053237;28;20181;-34
2022/04/01 00:25:19;;;;;;;4.43;2.30;;;8.10;37.70;;;;;;5052985;28;20269;-34
2022/04/01 00:27:45;;;;;;;3.83;3.53;;;8.10;37.40;;;;;;5052935;28;20290;-35
2022/04/01 00:30:11;;;;;;;2.93;2.23;;;8.10;37.50;;;;;;5052639;28;20886;-34
2022/04/01 00:32:38;;;;;;;3.60;2.70;;;8.10;38.40;;;;;;5053152;28;20184;-34
2022/04/01 00:35:05;;;;;;;6.07;3.08;;;8.10;37.90;;;;;;5052724;28;20255;-34
2022/04/01 00:37:31;;;;;;;3.78;1.55;;;8.10;37.90;;;;;;5051646;28;20530;-34
2022/04/01 00:39:57;;;;;;;5.18;2.55;;;8.10;37.90;;;;;;5052387;28;20185;-34
2022/04/01 00:42:23;;;;;;;1.85;1.10;;;8.10;37.90;;;;;;5052705;28;20166;-34
2022/04/01 00:44:49;;;;;;;4.40;1.48;;;8.10;38.00;;;;;;5052594;28;20263;-34
2022/04/01 00:47:15;;;;;;;3.17;2.30;;;8.00;37.60;;;;;;5052594;28;20642;-34
2022/04/01 00:49:43;;;;;;;4.73;2.67;;;8.00;37.60;;;;;;5052332;28;20427;-34
2022/04/01 00:52:12;;;;;;;2.15;1.60;;;8.00;37.70;;;;;;5052508;28;20402;-34
2022/04/01 00:54:39;;;;;;;3.60;2.13;;;8.10;37.90;;;;;;5052427;28;20203;-34
2022/04/01 00:57:06;;;;;;;4.15;2.03;;;8.10;37.80;;;;;;5052419;28;20263;-34
2022/04/01 00:59:35;;;;;;;3.67;3.25;;;8.10;37.90;;;;;;5052592;28;20206;-34
2022/04/01 01:02:02;;;;;;;5.40;1.77;;;8.10;37.80;;;;;;5052222;28;20643;-34
2022/04/01 01:04:28;;;;;;;3.35;1.55;;;8.10;37.30;;;;;;5052323;28;20580;-34
2022/04/01 01:06:57;;;;;;;4.47;2.60;;;8.10;37.30;;;;;;5052338;28;20166;-33
2022/04/01 01:09:25;;;;;;;4.95;3.03;;;8.10;38.10;;;;;;5051949;28;20212;-34
2022/04/01 01:11:52;;;;;;;3.90;2.30;;;8.00;37.10;;;;;;5052155;28;20180;-34
2022/04/01 01:14:34;;;;;;;11.80;2.97;;;8.00;37.50;;;;;;5052103;28;20707;-34
2022/04/01 01:17:02;;;;;;;3.97;2.35;;;8.00;37.80;;;;;;5052159;28;20177;-34
2022/04/01 01:19:30;;;;;;;5.65;2.45;;;8.00;37.70;;;;;;5051857;28;20200;-34
2022/04/01 01:21:56;;;;;;;7.47;1.95;;;8.00;37.70;;;;;;5052053;28;20704;-34
2022/04/01 01:24:32;;;;;;;4.05;2.63;;;8.00;37.70;;;;;;5052017;28;20220;-35
2022/04/01 01:26:59;;;;;;;3.85;2.78;;;8.10;37.90;;;;;;5052322;28;20172;-34
2022/04/01 01:29:27;;;;;;;4.68;3.33;;;8.10;38.00;;;;;;5051977;28;20198;-34
2022/04/01 01:31:55;;;;;;;5.40;2.35;;;8.10;37.70;;;;;;5051939;28;20170;-34
2022/04/01 01:34:22;;;;;;;2.67;1.85;;;8.10;37.00;;;;;;5052158;28;20184;-34
2022/04/01 01:36:50;;;;;;;4.28;1.30;;;8.10;36.90;;;;;;5051830;28;20192;-35
2022/04/01 01:39:17;;;;;;;6.53;2.60;;;8.10;36.80;;;;;;5051702;28;20919;-34
2022/04/01 01:41:44;;;;;;;5.72;2.25;;;8.00;36.80;;;;;;5051760;28;20196;-34
2022/04/01 01:44:11;;;;;;;4.53;2.35;;;8.00;37.00;;;;;;5051817;28;20200;-35
2022/04/01 01:46:37;;;;;;;2.90;2.05;;;8.00;36.90;;;;;;5051768;28;20173;-34
2022/04/01 01:49:03;;;;;;;4.22;2.42;;;8.00;36.40;;;;;;5054668;28;20285;-34
2022/04/01 01:56:59;;;;;;;4.45;3.13;;;8.00;36.80;;;;;;5056174;28;20586;-34
2022/04/01 01:59:26;;;;;;;3.67;2.30;;;8.00;37.00;;;;;;5055445;28;20227;-33
2022/04/01 02:01:52;;;;;;;2.85;2.65;;;8.00;37.10;;;;;;5055685;28;20508;-34
2022/04/01 02:04:22;;;;;;;2.63;1.92;;;8.10;37.40;;;;;;5055621;28;20210;-34
2022/04/01 02:06:48;;;;;;;3.65;2.90;;;8.10;37.20;;;;;;5055659;28;20532;-34
2022/04/01 02:09:14;;;;;;;3.28;1.33;;;8.10;37.10;;;;;;5055270;28;20704;-34
2022/04/01 02:11:40;;;;;;;3.53;2.30;;;8.10;37.20;;;;;;5055674;28;20221;-34
2022/04/01 02:14:06;;;;;;;3.73;2.30;;;8.20;37.20;;;;;;5055484;28;20170;-34
2022/04/01 02:16:32;;;;;;;3.43;1.70;;;8.20;37.00;;;;;;5055575;28;20210;-33
2022/04/01 02:18:57;;;;;;;10.57;2.90;;;8.20;37.10;;;;;;5055133;28;20415;-35
2022/04/01 02:21:23;;;;;;;3.20;2.27;;;8.20;37.10;;;;;;5055361;28;20301;-34
2022/04/01 02:23:51;;;;;;;2.67;1.73;;;8.20;36.80;;;;;;5055473;28;20201;-34
2022/04/01 02:26:17;;;;;;;4.95;2.85;;;8.20;36.60;;;;;;5055288;28;20717;-34
2022/04/01 02:28:43;;;;;;;3.10;2.30;;;7.50;36.60;;;;;;5055282;28;20201;-34
2022/04/01 02:31:14;;;;;;;2.50;1.80;;;8.20;36.90;;;;;;5055206;28;20625;-34
2022/04/01 02:33:42;;;;;;;3.25;1.60;;;8.20;36.80;;;;;;5055217;28;20719;-34
2022/04/01 02:36:10;;;;;;;3.30;1.92;;;8.20;36.80;;;;;;5055125;28;20203;-34
2022/04/01 02:38:39;;;;;;;2.05;1.65;;;8.20;36.80;;;;;;5054918;28;20571;-34
2022/04/01 02:41:06;;;;;;;3.55;1.92;;;8.20;36.90;;;;;;5055372;28;20169;-34
2022/04/01 02:43:33;;;;;;;5.07;3.28;;;8.30;36.80;;;;;;5054914;28;20180;-34
2022/04/01 02:45:58;;;;;;;3.70;2.00;;;8.30;36.30;;;;;;5054976;28;20172;-35
2022/04/01 02:48:24;;;;;;;1.90;1.30;;;8.30;34.70;;;;;;5054942;28;20552;-34
2022/04/01 02:50:50;;;;;;;3.00;2.10;;;8.20;35.00;;;;;;5066889;22;20707;-31
2022/04/01 02:53:16;;;;;;;3.13;2.05;;;8.20;35.40;;;;;;5054661;28;20177;-30
2022/04/01 02:55:42;;;;;;;2.37;1.53;;;8.20;35.80;;;;;;5054714;28;20224;-30
2022/04/01 02:58:09;;;;;;;2.08;1.83;;;8.20;35.40;;;;;;5054713;28;20403;-30
2022/04/01 03:00:37;;;;;;;4.00;2.20;;;8.20;33.80;;;;;;5053228;28;20238;-31
2022/04/01 03:03:08;;;;;;;2.95;0.95;;;8.20;34.60;;;;;;5054762;28;20201;-31
2022/04/01 03:05:39;;;;;;;4.28;2.17;;;8.20;34.40;;;;;;5055510;28;20174;-29
2022/04/01 03:08:05;;;;;;;2.33;1.23;;;8.10;34.60;;;;;;5055891;28;20170;-30
2022/04/01 03:10:35;;;;;;;1.75;1.30;;;8.20;34.00;;;;;;5054893;28;20204;-30
2022/04/01 03:13:01;;;;;;;8.85;2.15;;;8.10;34.30;;;;;;5054475;28;20178;-31
2022/04/01 03:15:28;;;;;;;2.10;1.08;;;8.10;31.80;;;;;;5054325;28;20201;-30
2022/04/01 03:17:55;;;;;;;2.80;2.08;;;8.00;33.60;;;;;;5054394;28;20165;-30
2022/04/01 03:20:22;;;;;;;3.97;2.00;;;8.00;33.70;;;;;;5053972;28;20197;-30
2022/04/01 03:22:49;;;;;;;7.35;1.73;;;8.10;33.60;;;;;;5054565;28;20208;-30
2022/04/01 03:25:18;;;;;;;2.15;1.58;;;8.10;33.70;;;;;;5052881;28;20221;-30
2022/04/01 03:27:45;;;;;;;4.00;1.25;;;8.10;33.30;;;;;;5054394;28;20184;-30
2022/04/01 03:30:13;;;;;;;2.78;1.58;;;8.00;33.10;;;;;;5053912;28;20201;-30
2022/04/01 03:32:42;;;;;;;2.70;1.50;;;8.00;33.30;;;;;;5054131;28;20179;-30
2022/04/01 03:35:13;;;;;;;2.08;0.95;;;8.00;31.20;;;;;;5053908;28;20204;-30
2022/04/01 03:37:38;;;;;;;2.30;1.00;;;8.00;33.20;;;;;;5052841;28;20176;-30
2022/04/01 03:40:05;;;;;;;3.27;1.67;;;8.00;33.10;;;;;;5052037;28;20544;-30
2022/04/01 03:42:32;;;;;;;3.05;1.67;;;8.00;33.30;;;;;;5045516;28;20400;-30
2022/04/01 03:45:06;;;;;;;2.90;1.80;;;8.00;32.70;;;;;;5033970;28;20194;-31
2022/04/01 03:47:46;;;;;;;4.40;1.17;;;8.00;33.00;;;;;;5034038;28;20190;-29
2022/04/01 03:50:12;;;;;;;2.72;1.75;;;8.00;33.10;;;;;;5033567;28;20214;-30
2022/04/01 03:52:39;;;;;;;3.72;1.40;;;8.00;33.10;;;;;;5033913;28;20174;-30
2022/04/01 03:55:09;;;;;;;3.47;1.98;;;8.00;33.30;;;;;;5034061;28;20297;-31
2022/04/01 03:57:40;;;;;;;3.92;2.03;;;8.00;32.00;;;;;;5033507;28;20189;-31
2022/04/01 04:00:12;;;;;;;3.13;1.55;;;8.00;31.80;;;;;;5033462;28;20710;-29
2022/04/01 04:02:40;;;;;;;3.03;1.75;;;7.90;32.00;;;;;;5033838;28;20177;-30
2022/04/01 04:05:07;;;;;;;2.53;1.33;;;7.80;32.00;;;;;;5033534;28;20584;-30
2022/04/01 04:07:33;;;;;;;2.58;0.80;;;7.80;30.80;;;;;;5033569;28;20227;-30
2022/04/01 04:09:59;;;;;;;3.75;1.48;;;7.70;32.00;;;;;;5033242;28;20191;-31
2022/04/01 04:12:27;;;;;;;1.95;1.33;;;7.70;31.80;;;;;;5033384;28;20192;-29
2022/04/01 04:14:54;;;;;;;1.98;1.50;;;7.70;31.80;;;;;;5033310;28;20562;-30
2022/04/01 04:17:35;;;;;;;6.97;1.38;;;7.70;32.50;;;;;;5032207;28;20174;-31
2022/04/01 04:20:23;;;;;;;3.08;1.50;;;7.70;32.30;;;;;;5045148;28;20197;-33
2022/04/01 04:23:11;;;;;;;3.10;1.27;;;7.70;31.50;;;;;;5053445;28;20161;-31
2022/04/01 04:25:38;;;;;;;2.00;1.00;;;7.70;32.40;;;;;;5053075;28;20177;-31
2022/04/01 04:28:18;;;;;;;2.28;1.45;;;7.60;32.10;;;;;;5053097;28;20212;-30
2022/04/01 04:30:53;;;;;;;3.15;1.58;;;7.50;31.30;;;;;;5053072;28;20204;-30
2022/04/01 04:33:23;;;;;;;2.15;1.95;;;7.50;32.50;;;;;;5053064;28;20172;-30
2022/04/01 04:35:51;;;;;;;3.22;1.40;;;7.50;32.90;;;;;;5052969;28;20229;-30
2022/04/01 04:38:20;;;;;;;3.25;2.78;;;7.50;33.00;;;;;;5052468;28;20182;-30
2022/04/01 04:40:46;;;;;;;3.45;1.52;;;7.60;31.80;;;;;;5044256;28;20195;-30
2022/04/01 04:43:14;;;;;;;2.37;1.30;;;7.50;32.20;;;;;;5052851;28;20664;-31
2022/04/01 04:45:41;;;;;;;6.10;1.52;;;7.50;32.70;;;;;;5052964;28;20233;-31
2022/04/01 04:48:09;;;;;;;3.50;2.15;;;7.50;32.70;;;;;;5052565;28;20185;-30
2022/04/01 04:50:37;;;;;;;1.95;1.35;;;7.50;32.50;;;;;;5052200;28;20273;-29
2022/04/01 04:53:03;;;;;;;4.68;1.40;;;7.50;33.00;;;;;;5051615;28;20177;-31
2022/04/01 04:55:34;;;;;;;2.95;1.80;;;7.50;33.10;;;;;;5052328;28;20584;-31
2022/04/01 04:58:01;;;;;;;5.05;2.30;;;7.50;33.10;;;;;;5052742;28;20206;-29
2022/04/01 05:00:27;;;;;;;1.70;1.15;;;7.40;33.40;;;;;;5051976;28;20232;-29
2022/04/01 05:03:12;;;;;;;6.37;2.13;;;7.40;33.60;;;;;;5052372;28;20256;-31
2022/04/01 05:05:43;;;;;;;2.25;1.30;;;7.40;33.70;;;;;;5052479;28;20177;-31
2022/04/01 05:08:21;;;;;;;1.85;1.30;;;7.30;34.10;;;;;;5052218;28;20326;-29
2022/04/01 05:10:50;;;;;;;2.75;1.55;;;7.30;34.40;;;;;;5043695;28;20197;-30
2022/04/01 05:13:38;;;;;;;1.90;1.42;;;7.30;34.80;;;;;;5052208;28;20518;-31
2022/04/01 05:16:07;;;;;;;2.70;1.30;;;7.30;34.90;;;;;;5047517;28;20684;-29
2022/04/01 05:18:44;;;;;;;1.90;1.00;;;7.20;35.00;;;;;;5048621;28;20234;-30
2022/04/01 05:21:20;;;;;;;4.00;1.50;;;7.20;35.60;;;;;;5052510;28;20197;-30
2022/04/01 05:24:01;;;;;;;4.63;2.38;;;7.20;35.30;;;;;;5051832;28;20173;-30
2022/04/01 05:26:40;;;;;;;2.15;1.25;;;7.20;35.50;;;;;;5052106;28;20637;-31
2022/04/01 05:29:13;;;;;;;2.17;1.52;;;7.10;36.30;;;;;;5051836;28;20204;-30
2022/04/01 05:32:07;;;;;;;3.20;2.00;;;7.10;35.70;;;;;;5052244;28;20238;-30
2022/04/01 05:34:47;;;;;;;3.30;1.80;;;7.10;35.90;;;;;;5038208;28;20182;-31
2022/04/01 05:37:16;;;;;;;3.83;2.53;;;7.00;36.00;;;;;;5051995;28;20259;-30
2022/04/01 05:39:47;;;;;;;1.70;1.40;;;7.00;36.10;;;;;;5051631;28;20221;-31
2022/04/01 05:42:14;;;;;;;1.80;1.15;;;7.00;37.00;;;;;;5052179;28;20288;-30
2022/04/01 05:44:42;;;;;;;5.57;1.92;;;6.90;36.50;;;;;;5051841;28;20157;-30
2022/04/01 05:47:10;;;;;;;2.25;1.75;;;6.90;36.50;;;;;;5052849;28;20181;-31
2022/04/01 05:49:45;;;;;;;2.13;1.92;;;7.00;36.60;;;;;;5051328;28;20264;-32
2022/04/01 05:52:12;;;;;;;3.15;1.90;;;7.00;36.80;;;;;;5051723;28;20586;-31
2022/04/01 05:54:42;;;;;;;2.15;1.27;;;7.00;36.70;;;;;;5051624;28;20253;-30
2022/04/01 05:57:10;;;;;;;3.05;1.58;;;7.00;36.80;;;;;;5050299;28;20178;-30
2022/04/01 05:59:36;;;;;;;2.92;2.13;;;7.00;36.90;;;;;;5051683;28;20250;-31
2022/04/01 06:02:05;;;;;;;1.80;1.48;;;7.00;37.10;;;;;;5052049;28;20188;-30
2022/04/01 06:04:39;;;;;;;2.35;1.45;;;7.00;36.90;;;;;;5051822;28;20264;-31
2022/04/01 06:07:23;;;;;;;4.47;2.03;;;6.90;37.00;;;;;;5051757;28;20154;-31
2022/04/01 06:10:11;;;;;;;1.80;1.00;;;6.80;37.00;;;;;;5051526;28;20197;-31
2022/04/01 06:12:59;;;;;;;3.38;1.88;;;6.70;37.20;;;;;;5051916;28;20660;-30
2022/04/01 06:15:27;;;;;;;2.60;1.73;;;6.70;37.40;;;;;;5052461;28;20205;-30
2022/04/01 06:18:02;;;;;;;2.30;1.45;;;6.70;37.70;;;;;;5052859;28;20329;-30
2022/04/01 06:20:29;;;;;;;2.58;1.63;;;6.70;37.70;;;;;;5051930;28;20201;-30
2022/04/01 06:23:10;;;;;;;3.70;2.05;;;6.70;37.60;;;;;;5051741;28;20582;-31
2022/04/01 06:25:43;;;;;;;3.17;2.72;;;6.70;37.70;;;;;;5051593;28;20192;-31
2022/04/01 06:28:32;;;;;;;2.97;1.90;;;6.80;37.70;;;;;;5051536;28;20752;-31
2022/04/01 06:31:10;;;;;;;3.42;1.88;;;6.80;37.70;;;;;;5051603;28;20273;-29
2022/04/01 06:34:07;;;;;;;2.28;1.98;;;6.80;37.70;;;;;;5052123;28;20196;-31
2022/04/01 06:36:44;;;;;;;2.65;1.38;;;6.80;37.70;;;;;;5047483;28;20236;-31
2022/04/01 06:39:18;;;;;;;6.32;2.05;;;6.90;37.70;;;;;;5054839;28;20220;-31
2022/04/01 06:41:49;;;;;;;2.83;2.05;;;6.90;37.70;;;;;;5055229;28;20176;-31
2022/04/01 06:44:15;;;;;;;3.40;2.05;;;6.90;37.60;;;;;;5055173;28;20260;-30
2022/04/01 06:46:40;;;;;;;3.50;2.73;;;6.90;37.70;;;;;;5053539;28;20259;-31
2022/04/01 06:49:08;;;;;;;5.83;2.43;;;6.90;38.10;;;;;;5047598;28;20219;-31
2022/04/01 06:51:39;;;;;;;3.38;2.10;;;6.80;37.50;;;;;;5054954;28;20204;-29
2022/04/01 06:54:05;;;;;;;2.65;2.45;;;6.80;37.50;;;;;;5054986;28;20185;-31
2022/04/01 06:56:31;;;;;;;2.35;2.15;;;6.70;37.50;;;;;;5054969;28;20200;-31
2022/04/01 06:58:57;;;;;;;2.73;1.57;;;6.70;37.50;;;;;;5054545;28;20177;-30
2022/04/01 07:01:23;;;;;;;4.87;1.90;;;6.70;37.60;;;;;;5054943;28;20439;-31
2022/04/01 07:03:48;;;;;;;1.60;0.93;;;6.70;37.70;;;;;;5051182;28;20471;-31
2022/04/01 07:06:15;;;;;;;3.10;2.00;;;6.70;37.70;;;;;;5048939;28;20169;-31
2022/04/01 07:08:42;;;;;;;2.20;1.75;;;6.60;37.70;;;;;;5054333;28;20188;-31
2022/04/01 07:11:08;;;;;;;2.65;1.73;;;6.60;37.70;;;;;;5054546;28;20233;-30
2022/04/01 07:13:33;;;;;;;5.17;3.00;;;6.60;37.70;;;;;;5054520;28;20169;-31
2022/04/01 07:15:59;;;;;;;2.83;1.47;;;6.60;37.30;;;;;;5054634;28;20448;-29
2022/04/01 07:18:25;;;;;;;2.73;1.90;;;6.50;37.30;;;;;;5054630;28;20546;-30
2022/04/01 07:20:52;;;;;;;3.20;2.40;;;6.50;37.70;;;;;;5054569;28;20190;-31
2022/04/01 07:23:18;;;;;;;2.53;1.67;;;6.50;37.70;;;;;;5054171;28;20169;-30
2022/04/01 07:25:43;;;;;;;3.20;2.20;;;6.60;37.70;;;;;;5054211;28;20189;-30
2022/04/01 07:28:09;;;;;;;1.90;1.20;;;6.60;37.60;;;;;;5045440;28;20419;-30
2022/04/01 07:30:36;;;;;;;4.57;2.17;;;6.70;37.80;;;;;;5054029;28;20205;-31
2022/04/01 07:33:03;;;;;;;4.35;1.60;;;6.70;37.70;;;;;;5054402;28;20819;-31
2022/04/01 07:35:30;;;;;;;3.00;2.45;;;6.70;38.30;;;;;;5053989;28;20622;-31
2022/04/01 07:37:56;;;;;;;3.75;2.00;;;6.70;37.80;;;;;;5053917;28;20184;-31
2022/04/01 07:40:23;;;;;;;3.10;1.30;;;6.80;37.70;;;;;;5053734;28;20197;-31
2022/04/01 07:42:50;;;;;;;3.08;2.20;;;6.80;37.30;;;;;;5054144;28;20404;-31
2022/04/01 07:45:16;;;;;;;3.45;2.20;;;6.70;37.30;;;;;;5053310;28;20181;-30
2022/04/01 07:47:44;;;;;;;5.70;2.40;;;6.70;37.30;;;;;;5053853;28;20231;-31
2022/04/01 07:50:12;;;;;;;2.70;2.45;;;6.60;37.40;;;;;;5053517;28;20298;-31
2022/04/01 07:52:40;;;;;;;8.73;2.60;;;6.60;37.00;;;;;;5054020;28;20215;-30
2022/04/01 07:55:07;;;;;;;4.68;2.33;;;6.60;37.40;;;;;;5053562;28;20217;-31
2022/04/01 07:57:33;;;;;;;2.30;1.73;;;6.60;37.70;;;;;;5054020;28;20177;-31
2022/04/01 07:59:59;;;;;;;2.90;1.77;;;6.60;37.80;;;;;;5053260;28;20200;-31
2022/04/01 08:02:25;;;;;;;4.10;2.50;;;6.60;37.70;;;;;;5053744;28;20415;-30
2022/04/01 08:04:50;;;;;;;4.13;2.43;;;6.70;38.10;;;;;;5053660;28;20177;-31
2022/04/01 08:07:16;;;;;;;2.97;2.33;;;6.70;38.20;;;;;;5053508;28;20204;-31
2022/04/01 08:09:42;;;;;;;5.97;2.65;;;6.80;38.10;;;;;;5053358;28;20193;-30
2022/04/01 08:12:08;;;;;;;3.75;2.50;;;6.80;38.10;;;;;;5053588;28;20177;-30
2022/04/01 08:14:37;;;;;;;3.70;2.20;;;6.80;38.10;;;;;;5053451;28;20177;-30
2022/04/01 08:17:04;;;;;;;3.28;1.77;;;6.80;38.00;;;;;;5053263;28;20256;-30
2022/04/01 08:19:30;;;;;;;3.70;2.50;;;6.80;38.00;;;;;;5053089;28;20189;-30
2022/04/01 08:21:57;;;;;;;4.40;3.22;;;6.80;38.80;;;;;;5053237;28;20182;-31
2022/04/01 08:24:24;;;;;;;5.07;3.08;;;6.80;38.30;;;;;;5053357;28;20170;-30
2022/04/01 08:26:51;;;;;;;4.38;2.53;;;6.80;38.90;;;;;;5053005;28;20177;-30
2022/04/01 08:29:17;;;;;;;4.30;3.83;;;6.80;38.70;;;;;;5053142;28;20545;-31
2022/04/01 08:31:42;;;;;;;3.80;2.40;;;6.80;38.40;;;;;;5053272;28;20648;-30
2022/04/01 08:34:09;;;;;;;4.40;2.07;;;6.90;38.40;;;;;;5053178;28;20486;-31
2022/04/01 08:36:35;;;;;;;4.93;2.70;;;6.90;38.40;;;;;;5052894;28;20521;-31
2022/04/01 08:39:00;;;;;;;3.57;2.67;;;6.90;38.20;;;;;;5052565;28;20177;-31
2022/04/01 08:41:26;;;;;;;5.33;3.40;;;6.90;38.30;;;;;;5052814;28;20169;-31
2022/04/01 08:43:53;;;;;;;4.10;3.00;;;7.00;38.20;;;;;;5053023;28;20177;-30
2022/04/01 08:46:20;;;;;;;7.13;3.28;;;7.00;38.20;;;;;;5052767;28;20176;-31
2022/04/01 08:48:46;;;;;;;5.85;2.92;;;6.90;38.80;;;;;;5052397;28;20259;-30
2022/04/01 08:51:13;;;;;;;5.72;4.50;;;6.90;38.60;;;;;;5052404;28;20209;-32
2022/04/01 08:53:43;;;;;;;4.70;3.00;;;6.90;38.60;;;;;;5052679;28;20273;-31
2022/04/01 08:56:09;;;;;;;9.13;5.07;;;6.90;38.60;;;;;;5052429;28;20236;-30
2022/04/01 08:58:35;;;;;;;5.65;3.28;;;7.00;38.60;;;;;;5051584;28;20181;-31
2022/04/01 09:01:03;;;;;;;3.75;3.25;;;7.00;38.50;;;;;;5052706;28;20196;-31
2022/04/01 09:03:30;;;;;;;2.75;2.03;;;7.10;38.50;;;;;;5052984;28;20502;-31
2022/04/01 09:05:58;;;;;;;2.90;2.70;;;7.10;38.40;;;;;;5052470;28;20220;-31
2022/04/01 09:08:30;;;;;;;2.22;1.52;;;7.20;38.30;;;;;;5052400;28;20188;-30
2022/04/01 09:10:55;;;;;;;4.53;3.17;;;7.20;38.10;;;;;;5052064;28;20201;-31
2022/04/01 09:13:25;;;;;;;3.23;2.37;;;7.20;38.90;;;;;;5052346;28;20185;-31
2022/04/01 09:15:51;;;;;;;2.85;2.03;;;7.20;38.30;;;;;;5050887;28;20205;-32
2022/04/01 09:18:41;;;;;;;12.35;2.55;;;7.30;38.20;;;;;;5053197;28;20172;-31
2022/04/01 09:21:10;;;;;;;4.70;1.77;;;7.40;38.10;;;;;;5053749;28;20190;-32
2022/04/01 09:23:37;;;;;;;3.60;3.17;;;7.40;37.80;;;;;;5052594;28;20181;-30
2022/04/01 09:26:05;;;;;;;3.17;1.83;;;7.30;37.80;;;;;;5052105;28;20279;-31
2022/04/01 09:28:37;;;;;;;2.45;1.73;;;8.30;38.40;;;;;;5052383;28;20189;-30
2022/04/01 09:31:10;;;;;;;1.88;1.50;;;7.40;38.00;;;;;;5051871;28;20197;-31
2022/04/01 09:33:46;;;;;;;4.85;2.13;;;7.40;38.10;;;;;;5052204;28;20268;-31
2022/04/01 09:36:25;;;;;;;4.43;2.15;;;7.50;37.90;;;;;;5051907;28;20193;-32
2022/04/01 09:39:09;;;;;;;1.88;1.25;;;7.50;38.10;;;;;;5051910;28;20523;-30
2022/04/01 09:41:36;;;;;;;2.90;1.65;;;7.50;37.90;;;;;;5051980;28;20170;-31
2022/04/01 09:44:08;;;;;;;3.47;2.28;;;7.50;37.70;;;;;;5052089;28;20173;-31
2022/04/01 09:46:34;;;;;;;2.95;2.20;;;7.60;37.80;;;;;;5052255;28;20257;-31
2022/04/01 09:49:00;;;;;;;3.13;1.85;;;7.60;37.70;;;;;;5052215;28;20198;-31
2022/04/01 09:51:31;;;;;;;2.90;2.25;;;7.70;37.70;;;;;;5051877;28;20538;-30
2022/04/01 09:54:02;;;;;;;15.65;2.78;;;7.70;37.60;;;;;;5052102;28;20193;-30
2022/04/01 09:56:49;;;;;;;1.92;1.33;;;7.80;37.80;;;;;;5052147;28;20247;-31
2022/04/01 09:59:16;;;;;;;3.92;2.85;;;7.90;37.90;;;;;;5051680;28;20197;-31
2022/04/01 10:01:43;;;;;;;5.20;2.83;;;7.90;37.40;;;;;;5051824;28;20179;-31
2022/04/01 10:04:12;;;;;;;3.20;2.28;;;7.90;37.70;;;;;;5051651;28;20177;-31
2022/04/01 10:06:39;;;;;;;3.58;1.95;;;8.00;38.40;;;;;;5051697;28;20170;-31
2022/04/01 10:09:09;;;;;;;2.75;2.33;;;8.10;37.50;;;;;;5052922;28;20705;-31
2022/04/01 10:11:37;;;;;;;3.17;2.05;;;8.10;37.50;;;;;;5055510;28;20252;-30
2022/04/01 10:14:18;;;;;;;3.40;1.92;;;8.20;38.30;;;;;;5055534;28;20323;-30
2022/04/01 10:16:46;;;;;;;2.20;1.75;;;8.30;37.30;;;;;;5055509;28;20203;-31
2022/04/01 10:19:19;;;;;;;2.80;1.90;;;8.40;36.50;;;;;;5055435;28;20201;-31
2022/04/01 10:21:45;;;;;;;4.15;2.58;;;8.40;36.30;;;;;;5055398;28;20180;-32
2022/04/01 10:24:18;;;;;;;2.17;1.52;;;8.40;35.70;;;;;;5055599;28;20233;-32
2022/04/01 10:27:04;;;;;;;3.00;1.92;;;8.30;36.20;;;;;;5055468;28;20170;-31
2022/04/01 10:29:34;;;;;;;5.57;2.30;;;8.30;36.20;;;;;;5033654;28;20695;-31
2022/04/01 10:32:23;;;;;;;4.72;2.15;;;8.30;36.20;;;;;;5055560;28;20230;-31
2022/04/01 10:34:51;;;;;;;2.30;1.50;;;8.30;34.80;;;;;;5051265;28;20173;-32
2022/04/01 10:37:18;;;;;;;2.90;1.83;;;8.30;35.50;;;;;;5049865;28;20251;-32
2022/04/01 10:39:55;;;;;;;6.03;2.55;;;8.40;35.20;;;;;;5054703;28;20759;-31
2022/04/01 10:42:36;;;;;;;10.98;2.50;;;8.40;34.40;;;;;;5055821;28;20252;-30
2022/04/01 10:45:05;;;;;;;3.38;1.90;;;8.50;34.70;;;;;;5055094;28;20540;-30
2022/04/01 10:53:38;;;;;;;5.53;3.08;;;8.60;35.20;;;;;;5055142;28;20173;-30
2022/04/01 10:56:22;;;;;;;3.17;1.90;;;8.60;35.00;;;;;;5054718;28;20203;-32
2022/04/01 10:59:11;;;;;;;3.10;2.40;;;8.60;34.50;;;;;;5054566;28;20174;-30
2022/04/01 11:02:03;;;;;;;3.75;2.45;;;8.70;34.10;;;;;;5055096;28;20174;-31
2022/04/01 11:04:32;;;;;;;2.90;2.70;;;8.70;34.20;;;;;;5054676;28;20180;-31
2022/04/01 11:06:57;;;;;;;4.07;2.17;;;8.60;34.40;;;;;;5054543;28;20257;-31
2022/04/01 11:09:38;;;;;;;3.10;1.63;;;8.60;34.70;;;;;;5054312;28;20605;-30
2022/04/01 11:12:31;;;;;;;3.53;2.35;;;8.60;34.70;;;;;;5055188;28;20180;-35
2022/04/01 11:14:59;;;;;;;5.95;2.00;;;8.60;34.70;;;;;;5035982;28;20692;-31
2022/04/01 11:17:34;;;;;;;5.03;3.67;;;8.50;34.50;;;;;;5054390;28;20248;-31
2022/04/01 11:20:32;;;;;;;3.17;1.90;;;8.40;35.10;;;;;;5053253;28;20238;-32
2022/04/01 11:22:59;;;;;;;4.18;2.60;;;8.40;35.40;;;;;;5054623;28;20175;-32
2022/04/01 11:25:25;;;;;;;24.13;13.32;;;8.40;36.00;;;;;;5054419;28;20203;-31
2022/04/01 11:28:06;;;;;;;4.30;2.47;;;8.30;35.20;;;;;;5054101;28;20588;-31
2022/04/01 11:30:41;;;;;;;2.53;2.00;;;8.40;34.90;;;;;;5054147;28;20204;-31
2022/04/01 11:33:12;;;;;;;2.47;1.77;;;8.40;34.80;;;;;;5054282;28;20177;-30
2022/04/01 11:35:42;;;;;;;2.50;1.75;;;8.30;34.80;;;;;;5054053;28;20199;-32
2022/04/01 11:38:13;;;;;;;5.00;2.40;;;8.30;35.00;;;;;;5053829;28;20182;-31
2022/04/01 11:40:40;;;;;;;3.70;3.00;;;8.30;34.00;;;;;;5053647;28;20542;-32
2022/04/01 11:43:17;;;;;;;6.20;3.50;;;8.30;34.40;;;;;;5054091;28;20568;-31
2022/04/01 11:45:44;;;;;;;2.67;1.92;;;8.30;34.20;;;;;;5054019;28;20204;-30
2022/04/01 11:48:21;;;;;;;5.28;2.30;;;8.20;34.50;;;;;;5053701;28;20177;-31
2022/04/01 11:50:51;;;;;;;2.45;1.55;;;8.30;33.40;;;;;;5053280;28;20745;-32
2022/04/01 11:53:47;;;;;;;5.90;2.47;;;8.20;33.70;;;;;;5053704;28;20231;-32
2022/04/01 11:56:14;;;;;;;7.00;2.00;;;6.90;33.70;;;;;;5053578;28;20203;-31
2022/04/01 11:58:51;;;;;;;3.25;2.05;;;8.20;33.30;;;;;;5053425;28;20232;-31
2022/04/01 12:01:18;;;;;;;4.93;2.63;;;8.30;34.10;;;;;;5053421;28;20230;-32
2022/04/01 12:03:44;;;;;;;2.88;1.48;;;8.30;33.90;;;;;;5053699;28;20184;-31
2022/04/01 12:08:54;;;;;;;4.55;2.30;;;8.40;33.60;;;;;;5053523;28;20192;-31
2022/04/01 12:11:20;;;;;;;2.37;1.77;;;8.40;34.40;;;;;;5053286;28;20173;-32
2022/04/01 12:13:50;;;;;;;8.27;2.63;;;8.50;33.90;;;;;;5053501;28;20224;-32
2022/04/01 12:16:18;;;;;;;4.80;2.92;;;8.60;33.50;;;;;;5053373;28;20222;-32
2022/04/01 12:18:49;;;;;;;2.58;1.13;;;8.60;33.00;;;;;;5053447;28;20254;-31
2022/04/01 12:21:23;;;;;;;4.07;1.48;;;8.60;31.60;;;;;;5053232;28;20230;-31
2022/04/01 12:23:51;;;;;;;3.08;1.40;;;8.60;32.60;;;;;;5053168;28;20227;-32
2022/04/01 12:26:19;;;;;;;3.75;2.50;;;8.60;32.50;;;;;;5053273;28;20182;-31
2022/04/01 12:28:47;;;;;;;5.50;2.63;;;8.70;33.00;;;;;;5052995;28;20184;-31
2022/04/01 12:31:31;;;;;;;2.25;2.05;;;8.80;33.20;;;;;;5052803;28;20199;-32
2022/04/01 12:33:58;;;;;;;2.70;1.98;;;8.90;32.60;;;;;;5053347;28;20167;-32
2022/04/01 12:36:34;;;;;;;5.05;2.78;;;8.90;31.90;;;;;;5053606;28;20200;-30
2022/04/01 12:39:08;;;;;;;4.20;1.98;;;9.00;32.60;;;;;;5053597;28;20205;-31
2022/04/01 12:41:34;;;;;;;6.03;2.22;;;9.00;32.70;;;;;;5053939;28;20233;-31
2022/04/01 12:44:13;;;;;;;3.60;1.88;;;9.10;32.50;;;;;;5052814;28;20181;-31
2022/04/01 12:46:39;;;;;;;2.17;1.90;;;9.20;32.40;;;;;;5052689;28;20176;-32
2022/04/01 12:49:13;;;;;;;4.78;3.20;;;9.30;31.90;;;;;;5051561;28;20233;-31
2022/04/01 12:51:47;;;;;;;4.55;1.92;;;9.30;31.10;;;;;;5044273;28;20239;-30
2022/04/01 12:54:28;;;;;;;5.05;2.00;;;9.30;32.00;;;;;;5052548;28;20280;-30
2022/04/01 12:56:54;;;;;;;6.43;2.83;;;9.40;31.90;;;;;;5052438;28;20222;-31
2022/04/01 12:59:21;;;;;;;11.55;5.93;;;9.50;31.70;;;;;;5052125;28;20197;-32
2022/04/01 13:01:59;;;;;;;9.95;4.68;;;9.50;31.70;;;;;;5052353;28;20628;-31
2022/04/01 13:04:25;;;;;;;12.30;5.28;;;9.60;31.80;;;;;;5052544;28;20212;-31
2022/04/01 13:07:15;;;;;;;3.27;2.07;;;9.60;31.20;;;;;;5052684;28;20200;-32
2022/04/01 13:09:57;;;;;;;2.90;1.88;;;9.70;31.70;;;;;;5052120;28;20430;-32
2022/04/01 13:12:37;;;;;;;4.82;2.13;;;9.70;31.60;;;;;;5052332;28;20671;-31
2022/04/01 13:15:12;;;;;;;6.00;3.30;;;9.70;30.80;;;;;;5052297;28;20212;-32
2022/04/01 13:17:51;;;;;;;3.70;2.50;;;9.80;30.70;;;;;;5052210;28;20173;-32
2022/04/01 13:20:35;;;;;;;3.67;1.70;;;9.90;31.30;;;;;;5051852;28;20219;-32
2022/04/01 13:23:03;;;;;;;4.70;2.30;;;9.90;30.80;;;;;;5052141;28;20164;-31
2022/04/01 13:25:31;;;;;;;4.63;2.75;;;10.00;30.40;;;;;;5050730;28;20184;-32
2022/04/01 13:27:58;;;;;;;2.90;2.13;;;10.00;30.80;;;;;;5051740;28;20685;-33